createdAt,value
2019-03-10T00:00:35.017Z,101111.72
2019-03-10T00:01:40.741Z,101108.08
2019-03-10T00:02:45.931Z,101108.22
2019-03-10T00:03:51.204Z,101109.06
2019-03-10T00:04:56.339Z,101104.23
2019-03-10T00:06:01.562Z,101108.08
2019-03-10T00:07:06.656Z,101101.58
2019-03-10T00:08:11.967Z,101098.45
2019-03-10T00:09:17.624Z,101096.27
2019-03-10T00:10:22.702Z,101090.48
2019-03-10T00:11:27.917Z,101086.51
2019-03-10T00:12:33.141Z,101083.48
2019-03-10T00:13:38.311Z,101086.61
2019-03-10T00:14:43.452Z,101079.73
2019-03-10T00:15:48.854Z,101079.36
2019-03-10T00:16:53.931Z,101082.62
2019-03-10T00:17:59.054Z,101081.30
2019-03-10T00:19:04.089Z,101075.98
2019-03-10T00:20:09.259Z,101076.09
2019-03-10T00:21:15.141Z,101077.55
2019-03-10T00:22:20.413Z,101072.82
2019-03-10T00:23:25.535Z,101069.45
2019-03-10T00:24:30.748Z,101067.74
2019-03-10T00:25:35.912Z,101071.34
2019-03-10T00:26:41.051Z,101069.78
2019-03-10T00:27:46.464Z,101071.95
2019-03-10T00:28:51.921Z,101070.63
2019-03-10T00:29:57.011Z,101061.20
2019-03-10T00:31:02.166Z,101071.95
2019-03-10T00:32:07.608Z,101074.98
2019-03-10T00:33:12.752Z,101066.17
2019-03-10T00:34:18.158Z,101069.68
2019-03-10T00:35:23.411Z,101063.39
2019-03-10T00:36:28.640Z,101070.02
2019-03-10T00:37:33.856Z,101067.87
2019-03-10T00:38:51.912Z,101065.22
2019-03-10T00:40:38.088Z,101055.43
2019-03-10T00:42:10.907Z,101053.28
2019-03-10T00:44:02.823Z,101049.31
2019-03-10T00:45:43.913Z,101048.08
2019-03-10T00:47:25.834Z,101053.63
2019-03-10T00:49:13.453Z,101047.22
2019-03-10T00:51:13.818Z,101041.30
2019-03-10T00:52:32.305Z,101032.01
2019-03-10T00:53:37.423Z,101043.85
2019-03-10T00:54:42.497Z,101041.20
2019-03-10T00:55:47.652Z,101047.45
2019-03-10T00:56:53.052Z,101044.42
2019-03-10T00:57:58.551Z,101040.83
2019-03-10T00:59:03.681Z,101045.66
2019-03-10T01:00:15.149Z,101044.67
2019-03-10T01:01:20.311Z,101045.05
2019-03-10T01:02:25.444Z,101046.27
2019-03-10T01:03:30.648Z,101038.79
2019-03-10T01:04:35.693Z,101037.70
2019-03-10T01:05:40.859Z,101038.08
2019-03-10T01:06:46.058Z,101046.75
2019-03-10T01:07:51.192Z,101040.13
2019-03-10T01:08:56.345Z,101027.23
2019-03-10T01:10:01.517Z,101033.86
2019-03-10T01:11:06.660Z,101030.73
2019-03-10T01:12:11.886Z,101026.25
2019-03-10T01:13:17.366Z,101031.92
2019-03-10T01:14:22.509Z,101027.09
2019-03-10T01:15:27.612Z,101029.64
2019-03-10T01:16:33.436Z,101021.31
2019-03-10T01:17:39.174Z,101022.06
2019-03-10T01:18:48.840Z,101013.59
2019-03-10T01:19:54.329Z,101009.98
2019-03-10T01:21:02.380Z,101002.87
2019-03-10T01:22:07.521Z,101007.23
2019-03-10T01:23:12.887Z,101004.44
2019-03-10T01:24:18.084Z,100984.30
2019-03-10T01:25:23.182Z,100984.30
2019-03-10T01:26:28.525Z,100990.09
2019-03-10T01:27:33.703Z,100987.43
2019-03-10T01:28:39.012Z,100987.09
2019-03-10T01:29:44.126Z,100989.27
2019-03-10T01:31:09.918Z,100976.00
2019-03-10T01:32:30.015Z,100970.19
2019-03-10T01:34:06.733Z,100958.14
2019-03-10T01:35:17.565Z,100952.13
2019-03-10T01:36:21.115Z,100950.89
2019-03-10T01:37:26.137Z,100943.55
2019-03-10T01:38:31.151Z,100947.53
2019-03-10T01:39:36.361Z,100946.20
2019-03-10T01:40:41.491Z,100942.70
2019-03-10T01:41:46.793Z,100944.02
2019-03-10T01:42:51.856Z,100940.52
2019-03-10T01:43:56.941Z,100936.92
2019-03-10T01:45:01.985Z,100940.89
2019-03-10T01:46:07.206Z,100934.84
2019-03-10T01:47:12.271Z,100937.39
2019-03-10T01:48:17.812Z,100932.94
2019-03-10T01:49:22.857Z,100926.55
2019-03-10T01:50:27.974Z,100928.45
2019-03-10T01:51:33.048Z,100927.97
2019-03-10T01:52:38.183Z,100919.05
2019-03-10T01:53:43.688Z,100918.10
2019-03-10T01:54:48.885Z,100916.77
2019-03-10T01:55:54.033Z,100918.44
2019-03-10T01:56:59.063Z,100917.48
2019-03-10T01:58:04.224Z,100914.73
2019-03-10T01:59:09.285Z,100906.62
2019-03-10T02:00:16.227Z,100906.62
2019-03-10T02:01:21.405Z,100906.62
2019-03-10T02:02:26.489Z,100896.86
2019-03-10T02:03:31.576Z,100896.86
2019-03-10T02:04:36.571Z,100885.40
2019-03-10T02:05:41.608Z,100882.16
2019-03-10T02:06:46.692Z,100873.21
2019-03-10T02:07:51.799Z,100870.56
2019-03-10T02:08:56.850Z,100868.75
2019-03-10T02:10:02.217Z,100863.92
2019-03-10T02:11:07.358Z,100855.96
2019-03-10T02:12:12.376Z,100850.55
2019-03-10T02:13:17.366Z,100852.11
2019-03-10T02:14:22.692Z,100848.49
2019-03-10T02:15:27.805Z,100849.82
2019-03-10T02:16:32.837Z,100848.83
2019-03-10T02:17:37.866Z,100844.38
2019-03-10T02:18:42.992Z,100836.89
2019-03-10T02:19:48.454Z,100835.09
2019-03-10T02:20:53.605Z,100827.97
2019-03-10T02:21:58.767Z,100826.27
2019-03-10T02:23:03.899Z,100824.95
2019-03-10T02:24:08.953Z,100817.83
2019-03-10T02:25:14.379Z,100813.74
2019-03-10T02:26:19.468Z,100816.87
2019-03-10T02:27:24.628Z,100814.08
2019-03-10T02:28:29.704Z,100805.78
2019-03-10T02:29:34.803Z,100804.45
2019-03-10T02:30:39.985Z,100807.81
2019-03-10T02:31:45.299Z,100808.77
2019-03-10T02:32:50.445Z,100803.97
2019-03-10T02:33:55.852Z,100794.17
2019-03-10T02:35:01.099Z,100794.55
2019-03-10T02:36:06.475Z,100777.69
2019-03-10T02:37:11.552Z,100783.22
2019-03-10T02:38:16.604Z,100779.23
2019-03-10T02:39:21.731Z,100774.52
2019-03-10T02:40:26.859Z,100772.48
2019-03-10T02:41:31.913Z,100765.48
2019-03-10T02:42:36.942Z,100766.21
2019-03-10T02:43:42.044Z,100762.37
2019-03-10T02:44:47.026Z,100765.98
2019-03-10T02:45:52.515Z,100755.62
2019-03-10T02:46:57.503Z,100755.25
2019-03-10T02:48:02.672Z,100755.25
2019-03-10T02:49:07.802Z,100751.41
2019-03-10T02:50:12.947Z,100755.98
2019-03-10T02:51:18.065Z,100754.80
2019-03-10T02:52:23.772Z,100750.92
2019-03-10T02:53:28.827Z,100746.61
2019-03-10T02:54:33.969Z,100742.73
2019-03-10T02:55:39.294Z,100742.36
2019-03-10T02:56:44.384Z,100735.73
2019-03-10T02:57:49.506Z,100728.77
2019-03-10T02:58:54.877Z,100719.48
2019-03-10T02:59:59.980Z,100722.47
2019-03-10T03:01:05.129Z,100713.18
2019-03-10T03:02:10.269Z,100712.36
2019-03-10T03:03:15.497Z,100708.86
2019-03-10T03:04:20.640Z,100706.55
2019-03-10T03:05:25.696Z,100709.71
2019-03-10T03:06:30.911Z,100689.08
2019-03-10T03:07:36.039Z,100679.81
2019-03-10T03:08:41.160Z,100688.37
2019-03-10T03:09:46.239Z,100683.55
2019-03-10T03:10:51.305Z,100685.34
2019-03-10T03:11:56.488Z,100680.19
2019-03-10T03:13:01.562Z,100672.70
2019-03-10T03:14:06.706Z,100674.87
2019-03-10T03:15:12.257Z,100677.39
2019-03-10T03:16:17.417Z,100668.95
2019-03-10T03:17:22.373Z,100668.95
2019-03-10T03:18:27.542Z,100668.33
2019-03-10T03:19:32.585Z,100658.45
2019-03-10T03:20:37.824Z,100659.19
2019-03-10T03:21:43.963Z,100668.33
2019-03-10T03:22:50.017Z,100658.71
2019-03-10T03:23:55.059Z,100656.91
2019-03-10T03:25:00.451Z,100646.77
2019-03-10T03:26:05.653Z,100643.64
2019-03-10T03:27:10.794Z,100644.71
2019-03-10T03:28:15.858Z,100634.24
2019-03-10T03:29:20.829Z,100637.01
2019-03-10T03:30:26.139Z,100636.41
2019-03-10T03:31:31.197Z,100635.59
2019-03-10T03:32:36.778Z,100630.88
2019-03-10T03:33:41.844Z,100622.56
2019-03-10T03:34:46.794Z,100619.57
2019-03-10T03:36:03.255Z,100621.74
2019-03-10T03:37:10.290Z,100610.99
2019-03-10T03:38:15.699Z,100613.27
2019-03-10T03:39:41.817Z,100612.09
2019-03-10T03:40:49.882Z,100607.75
2019-03-10T03:41:55.001Z,100604.76
2019-03-10T03:43:00.021Z,100606.90
2019-03-10T03:44:05.165Z,100596.91
2019-03-10T03:45:10.383Z,100601.52
2019-03-10T03:46:15.532Z,100595.47
2019-03-10T03:47:20.622Z,100596.94
2019-03-10T03:48:25.700Z,100589.94
2019-03-10T03:49:30.839Z,100583.79
2019-03-10T03:50:35.801Z,100582.09
2019-03-10T03:51:40.933Z,100577.64
2019-03-10T03:52:46.017Z,100572.12
2019-03-10T03:53:51.324Z,100571.16
2019-03-10T03:54:56.328Z,100566.33
2019-03-10T03:56:01.576Z,100563.31
2019-03-10T03:57:06.609Z,100555.84
2019-03-10T03:58:11.990Z,100543.57
2019-03-10T03:59:17.106Z,100546.11
2019-03-10T04:00:22.212Z,100539.59
2019-03-10T04:01:33.307Z,100538.86
2019-03-10T04:02:39.557Z,100532.00
2019-03-10T04:03:45.180Z,100531.89
2019-03-10T04:04:50.420Z,100524.67
2019-03-10T04:05:55.497Z,100524.67
2019-03-10T04:07:00.539Z,100523.86
2019-03-10T04:08:05.930Z,100519.15
2019-03-10T04:09:11.060Z,100516.64
2019-03-10T04:10:16.186Z,100507.03
2019-03-10T04:11:21.292Z,100508.83
2019-03-10T04:12:26.421Z,100508.46
2019-03-10T04:13:31.520Z,100499.80
2019-03-10T04:14:36.529Z,100500.66
2019-03-10T04:15:41.568Z,100498.59
2019-03-10T04:16:46.622Z,100490.05
2019-03-10T04:17:51.723Z,100489.83
2019-03-10T04:18:57.037Z,100488.75
2019-03-10T04:20:02.026Z,100487.20
2019-03-10T04:21:07.057Z,100477.93
2019-03-10T04:22:12.021Z,100475.53
2019-03-10T04:23:17.286Z,100466.00
2019-03-10T04:24:22.333Z,100474.09
2019-03-10T04:25:27.423Z,100469.75
2019-03-10T04:26:32.884Z,100469.75
2019-03-10T04:27:37.850Z,100460.14
2019-03-10T04:28:42.948Z,100467.50
2019-03-10T04:29:48.279Z,100461.94
2019-03-10T04:30:53.303Z,100461.60
2019-03-10T04:31:58.426Z,100457.37
2019-03-10T04:33:03.542Z,100448.10
2019-03-10T04:34:08.581Z,100461.72
2019-03-10T04:35:13.653Z,100447.77
2019-03-10T04:36:18.871Z,100445.70
2019-03-10T04:37:23.826Z,100435.84
2019-03-10T04:38:28.952Z,100441.03
2019-03-10T04:39:34.035Z,100435.73
2019-03-10T04:40:39.083Z,100436.95
2019-03-10T04:41:44.224Z,100436.09
2019-03-10T04:42:49.275Z,100432.61
2019-03-10T04:43:54.384Z,100426.83
2019-03-10T04:44:59.489Z,100411.92
2019-03-10T04:46:04.642Z,100411.92
2019-03-10T04:47:09.692Z,100415.02
2019-03-10T04:48:14.813Z,100415.98
2019-03-10T04:49:20.124Z,100415.50
2019-03-10T04:50:25.477Z,100396.48
2019-03-10T04:51:30.587Z,100396.48
2019-03-10T04:52:35.760Z,100401.30
2019-03-10T04:53:41.427Z,100393.13
2019-03-10T04:55:17.333Z,100391.44
2019-03-10T04:56:44.152Z,100387.94
2019-03-10T04:58:00.819Z,100384.96
2019-03-10T04:59:05.831Z,100384.96
2019-03-10T05:00:11.066Z,100384.45
2019-03-10T05:01:16.173Z,100362.67
2019-03-10T05:02:21.533Z,100362.67
2019-03-10T05:03:26.756Z,100357.88
2019-03-10T05:04:32.207Z,100371.34
2019-03-10T05:05:37.350Z,100371.34
2019-03-10T05:06:42.669Z,100357.04
2019-03-10T05:07:47.737Z,100354.39
2019-03-10T05:08:53.051Z,100349.09
2019-03-10T05:09:58.418Z,100349.09
2019-03-10T05:11:03.487Z,100345.97
2019-03-10T05:12:08.582Z,100347.03
2019-03-10T05:13:13.693Z,100345.71
2019-03-10T05:14:18.931Z,100344.25
2019-03-10T05:15:24.266Z,100330.19
2019-03-10T05:16:29.598Z,100342.44
2019-03-10T05:17:34.634Z,100337.98
2019-03-10T05:18:39.658Z,100333.54
2019-03-10T05:19:44.791Z,100330.05
2019-03-10T05:20:50.562Z,100325.92
2019-03-10T05:21:55.771Z,100321.36
2019-03-10T05:23:31.547Z,100314.38
2019-03-10T05:24:36.757Z,100306.43
2019-03-10T05:25:42.093Z,100299.80
2019-03-10T05:26:47.471Z,100295.36
2019-03-10T05:27:52.639Z,100294.73
2019-03-10T05:28:57.931Z,100283.66
2019-03-10T05:30:03.061Z,100276.08
2019-03-10T05:31:08.204Z,100275.12
2019-03-10T05:32:13.743Z,100274.86
2019-03-10T05:33:18.865Z,100265.58
2019-03-10T05:34:23.981Z,100260.28
2019-03-10T05:35:28.944Z,100260.28
2019-03-10T05:36:34.251Z,100259.55
2019-03-10T05:37:39.598Z,100237.09
2019-03-10T05:38:45.368Z,100237.09
2019-03-10T05:39:50.977Z,100235.98
2019-03-10T05:40:56.350Z,100240.44
2019-03-10T05:42:01.356Z,100232.90
2019-03-10T05:43:06.423Z,100229.98
2019-03-10T05:44:11.481Z,100219.75
2019-03-10T05:45:16.523Z,100219.75
2019-03-10T05:46:21.660Z,100216.02
2019-03-10T05:47:26.675Z,100224.21
2019-03-10T05:48:31.742Z,100209.06
2019-03-10T05:49:36.938Z,100210.48
2019-03-10T05:50:42.066Z,100203.86
2019-03-10T05:51:47.094Z,100196.03
2019-03-10T05:53:00.685Z,100186.88
2019-03-10T05:54:05.404Z,100186.88
2019-03-10T05:55:10.918Z,100176.80
2019-03-10T05:56:16.224Z,100170.98
2019-03-10T05:57:21.299Z,100157.69
2019-03-10T05:58:26.574Z,100155.16
2019-03-10T05:59:31.618Z,100164.88
2019-03-10T06:00:42.694Z,100167.02
2019-03-10T06:01:43.888Z,100165.36
2019-03-10T06:02:49.038Z,100165.48
2019-03-10T06:03:54.323Z,100165.00
2019-03-10T06:04:59.634Z,100155.63
2019-03-10T06:06:04.858Z,100165.63
2019-03-10T06:07:09.969Z,100159.13
2019-03-10T06:08:15.317Z,100147.38
2019-03-10T06:09:20.476Z,100147.38
2019-03-10T06:10:25.551Z,100156.27
2019-03-10T06:11:30.629Z,100154.09
2019-03-10T06:12:35.668Z,100146.63
2019-03-10T06:13:40.657Z,100134.02
2019-03-10T06:14:45.793Z,100134.02
2019-03-10T06:15:50.972Z,100141.59
2019-03-10T06:16:55.973Z,100137.52
2019-03-10T06:18:00.992Z,100134.50
2019-03-10T06:19:06.043Z,100134.02
2019-03-10T06:20:11.232Z,100121.73
2019-03-10T06:21:16.556Z,100118.73
2019-03-10T06:22:21.909Z,100115.27
2019-03-10T06:23:27.461Z,100113.10
2019-03-10T06:24:32.443Z,100109.13
2019-03-10T06:25:37.519Z,100108.28
2019-03-10T06:26:42.686Z,100108.41
2019-03-10T06:27:47.994Z,100109.73
2019-03-10T06:28:53.176Z,100115.87
2019-03-10T06:29:58.191Z,100115.87
2019-03-10T06:31:03.605Z,100092.88
2019-03-10T06:32:08.550Z,100065.44
2019-03-10T06:33:13.665Z,100037.28
2019-03-10T06:34:18.679Z,100046.30
2019-03-10T06:35:24.005Z,100073.64
2019-03-10T06:36:29.025Z,100103.28
2019-03-10T06:37:34.096Z,100100.80
2019-03-10T06:38:39.376Z,100079.16
2019-03-10T06:39:44.458Z,100072.69
2019-03-10T06:40:49.561Z,100063.81
2019-03-10T06:41:54.506Z,100060.30
2019-03-10T06:42:59.627Z,100059.31
2019-03-10T06:44:04.795Z,100055.34
2019-03-10T06:45:10.214Z,100054.73
2019-03-10T06:46:15.262Z,100047.97
2019-03-10T06:47:20.530Z,100009.11
2019-03-10T06:48:25.688Z,100009.11
2019-03-10T06:49:30.636Z,99981.68
2019-03-10T06:50:35.721Z,99981.68
2019-03-10T06:51:41.248Z,99990.47
2019-03-10T06:52:46.281Z,100006.83
2019-03-10T06:53:51.348Z,100006.83
2019-03-10T06:54:56.405Z,100014.41
2019-03-10T06:56:01.471Z,100030.29
2019-03-10T06:57:06.523Z,100022.94
2019-03-10T06:58:11.813Z,100022.94
2019-03-10T06:59:17.068Z,100014.54
2019-03-10T07:00:22.140Z,100008.67
2019-03-10T07:01:27.502Z,100005.66
2019-03-10T07:02:32.618Z,100005.66
2019-03-10T07:03:37.949Z,99989.19
2019-03-10T07:04:43.017Z,99989.19
2019-03-10T07:05:48.303Z,99982.58
2019-03-10T07:06:53.353Z,99979.45
2019-03-10T07:07:58.408Z,99964.53
2019-03-10T07:09:05.388Z,99968.38
2019-03-10T07:10:12.062Z,99951.39
2019-03-10T07:11:17.170Z,99951.39
2019-03-10T07:12:22.275Z,99950.07
2019-03-10T07:13:27.639Z,99950.07
2019-03-10T07:14:32.989Z,99949.92
2019-03-10T07:15:38.113Z,99940.66
2019-03-10T07:16:43.406Z,99934.67
2019-03-10T07:17:48.506Z,99942.22
2019-03-10T07:18:53.603Z,99943.03
2019-03-10T07:19:58.867Z,99942.55
2019-03-10T07:21:03.838Z,99944.36
2019-03-10T07:22:09.009Z,99942.70
2019-03-10T07:23:15.320Z,99936.42
2019-03-10T07:24:20.282Z,99928.15
2019-03-10T07:25:25.422Z,99928.15
2019-03-10T07:26:30.426Z,99919.73
2019-03-10T07:28:03.722Z,99921.53
2019-03-10T07:29:30.042Z,99915.61
2019-03-10T07:30:42.655Z,99918.13
2019-03-10T07:31:52.465Z,99914.28
2019-03-10T07:33:13.063Z,99901.11
2019-03-10T07:34:36.067Z,99901.11
2019-03-10T07:35:53.289Z,99906.70
2019-03-10T07:37:15.974Z,99900.78
2019-03-10T07:38:36.678Z,99897.65
2019-03-10T07:40:03.879Z,99886.22
2019-03-10T07:41:34.559Z,99890.64
2019-03-10T07:43:01.884Z,99887.35
2019-03-10T07:44:27.035Z,99879.29
2019-03-10T07:46:06.042Z,99878.66
2019-03-10T07:47:23.022Z,99868.34
2019-03-10T07:48:51.130Z,99857.27
2019-03-10T07:50:17.959Z,99857.27
2019-03-10T07:51:30.130Z,99851.63
2019-03-10T07:52:43.247Z,99859.73
2019-03-10T07:54:16.851Z,99849.95
2019-03-10T07:55:40.956Z,99852.59
2019-03-10T07:57:01.268Z,99861.05
2019-03-10T07:58:20.375Z,99831.58
2019-03-10T07:59:53.473Z,99850.95
2019-03-10T08:01:15.937Z,99851.78
2019-03-10T08:02:40.242Z,99853.72
2019-03-10T08:04:02.904Z,99852.39
2019-03-10T08:05:25.801Z,99854.20
2019-03-10T08:06:53.144Z,99859.49
2019-03-10T08:08:04.751Z,99851.27
2019-03-10T08:09:18.607Z,99848.02
2019-03-10T08:10:54.673Z,99847.29
2019-03-10T08:12:24.842Z,99838.58
2019-03-10T08:13:51.699Z,99822.14
2019-03-10T08:15:22.051Z,99815.59
2019-03-10T08:16:52.339Z,99826.51
2019-03-10T08:18:28.617Z,99864.02
2019-03-10T08:19:51.419Z,99883.27
2019-03-10T08:21:15.619Z,99842.84
2019-03-10T08:22:51.701Z,99837.34
2019-03-10T08:24:11.688Z,99835.86
2019-03-10T08:25:26.423Z,99838.11
2019-03-10T08:26:56.502Z,99827.60
2019-03-10T08:28:08.924Z,99827.60
2019-03-10T08:29:42.845Z,99822.98
2019-03-10T08:31:07.003Z,99822.98
2019-03-10T08:32:22.387Z,99827.99
2019-03-10T08:34:01.617Z,99820.81
2019-03-10T08:35:15.311Z,99819.59
2019-03-10T08:36:42.403Z,99811.64
2019-03-10T08:37:56.191Z,99811.42
2019-03-10T08:39:19.844Z,99811.08
2019-03-10T08:40:44.165Z,99808.70
2019-03-10T08:42:20.134Z,99804.56
2019-03-10T08:43:33.660Z,99819.17
2019-03-10T08:45:00.800Z,99818.23
2019-03-10T08:46:11.723Z,99817.14
2019-03-10T08:47:23.922Z,99805.11
2019-03-10T08:48:57.714Z,99804.33
2019-03-10T08:50:30.066Z,99799.41
2019-03-10T08:51:42.339Z,99803.35
2019-03-10T08:52:55.743Z,99803.35
2019-03-10T08:54:22.643Z,99797.62
2019-03-10T08:55:49.922Z,99801.17
2019-03-10T08:57:00.817Z,99797.44
2019-03-10T08:58:15.812Z,99798.49
2019-03-10T08:59:38.933Z,99787.80
2019-03-10T09:01:01.755Z,99792.16
2019-03-10T09:02:24.582Z,99789.69
2019-03-10T09:03:47.801Z,99785.77
2019-03-10T09:05:00.349Z,99778.34
2019-03-10T09:06:12.028Z,99774.11
2019-03-10T09:07:36.106Z,99764.90
2019-03-10T09:09:03.612Z,99764.42
2019-03-10T09:10:16.298Z,99755.14
2019-03-10T09:11:40.339Z,99769.83
2019-03-10T09:12:51.742Z,99760.89
2019-03-10T09:14:05.843Z,99766.73
2019-03-10T09:15:44.922Z,99759.63
2019-03-10T09:17:07.552Z,99762.67
2019-03-10T09:18:30.176Z,99755.73
2019-03-10T09:20:00.198Z,99750.81
2019-03-10T09:21:18.994Z,99750.20
2019-03-10T09:22:55.324Z,99741.92
2019-03-10T09:24:18.693Z,99744.44
2019-03-10T09:25:32.761Z,99740.84
2019-03-10T09:26:55.658Z,99735.05
2019-03-10T09:28:18.573Z,99733.44
2019-03-10T09:29:37.039Z,99730.16
2019-03-10T09:31:03.896Z,99722.70
2019-03-10T09:32:37.079Z,99716.72
2019-03-10T09:33:50.279Z,99707.77
2019-03-10T09:35:03.119Z,99710.25
2019-03-10T09:36:20.380Z,99707.28
2019-03-10T09:37:34.558Z,99705.78
2019-03-10T09:38:58.564Z,99709.80
2019-03-10T09:40:23.635Z,99712.13
2019-03-10T09:41:38.595Z,99716.47
2019-03-10T09:42:54.978Z,99715.28
2019-03-10T09:44:12.789Z,99704.13
2019-03-10T09:45:36.705Z,99694.63
2019-03-10T09:46:47.585Z,99702.42
2019-03-10T09:48:14.130Z,99703.75
2019-03-10T09:49:29.877Z,99697.45
2019-03-10T09:50:52.345Z,99699.27
2019-03-10T09:52:14.270Z,99706.41
2019-03-10T09:53:38.293Z,99693.12
2019-03-10T09:55:01.058Z,99703.61
2019-03-10T09:56:29.161Z,99702.80
2019-03-10T09:57:51.530Z,99700.98
2019-03-10T09:59:10.989Z,99705.31
2019-03-10T10:00:23.532Z,99695.52
2019-03-10T10:01:44.311Z,99690.00
2019-03-10T10:03:07.015Z,99695.00
2019-03-10T10:04:40.202Z,99688.01
2019-03-10T10:05:57.698Z,99686.69
2019-03-10T10:07:24.543Z,99686.36
2019-03-10T10:08:51.222Z,99679.75
2019-03-10T10:10:27.337Z,99690.23
2019-03-10T10:11:44.488Z,99690.27
2019-03-10T10:13:02.551Z,99678.12
2019-03-10T10:14:32.896Z,99666.85
2019-03-10T10:15:44.519Z,99671.88
2019-03-10T10:17:03.574Z,99673.71
2019-03-10T10:18:24.124Z,99661.44
2019-03-10T10:19:36.297Z,99674.11
2019-03-10T10:21:01.331Z,99665.86
2019-03-10T10:22:19.402Z,99674.52
2019-03-10T10:23:30.135Z,99666.55
2019-03-10T10:24:50.284Z,99659.72
2019-03-10T10:26:20.234Z,99665.39
2019-03-10T10:27:53.765Z,99663.72
2019-03-10T10:29:13.759Z,99650.09
2019-03-10T10:30:44.172Z,99640.94
2019-03-10T10:31:55.178Z,99642.45
2019-03-10T10:33:16.588Z,99644.76
2019-03-10T10:34:59.292Z,99641.75
2019-03-10T10:36:17.854Z,99636.78
2019-03-10T10:37:39.393Z,99640.09
2019-03-10T10:39:02.176Z,99633.44
2019-03-10T10:40:32.176Z,99635.46
2019-03-10T10:41:59.606Z,99640.11
2019-03-10T10:43:17.969Z,99629.81
2019-03-10T10:44:38.402Z,99635.30
2019-03-10T10:46:05.242Z,99623.14
2019-03-10T10:47:28.350Z,99629.16
2019-03-10T10:48:39.974Z,99623.00
2019-03-10T10:49:56.112Z,99635.48
2019-03-10T10:51:23.331Z,99625.50
2019-03-10T10:52:40.472Z,99639.16
2019-03-10T10:53:52.632Z,99627.84
2019-03-10T10:55:21.256Z,99634.50
2019-03-10T10:56:42.480Z,99611.85
2019-03-10T10:58:06.454Z,99611.36
2019-03-10T10:59:20.977Z,99624.16
2019-03-10T11:00:54.249Z,99633.81
2019-03-10T11:02:23.665Z,99618.50
2019-03-10T11:03:44.516Z,99621.16
2019-03-10T11:05:12.455Z,99623.80
2019-03-10T11:06:32.993Z,99632.13
2019-03-10T11:07:45.172Z,99639.11
2019-03-10T11:09:02.697Z,99653.77
2019-03-10T11:10:26.361Z,99647.78
2019-03-10T11:11:50.543Z,99624.14
2019-03-10T11:13:26.764Z,99632.81
2019-03-10T11:14:45.334Z,99640.30
2019-03-10T11:16:11.594Z,99635.65
2019-03-10T11:17:23.781Z,99638.98
2019-03-10T11:19:00.378Z,99636.32
2019-03-10T11:20:17.934Z,99650.13
2019-03-10T11:21:57.438Z,99641.16
2019-03-10T11:23:12.298Z,99642.16
2019-03-10T11:24:22.411Z,99647.15
2019-03-10T11:25:31.856Z,99636.16
2019-03-10T11:26:43.631Z,99632.47
2019-03-10T11:28:07.846Z,99617.33
2019-03-10T11:29:24.747Z,99621.63
2019-03-10T11:30:47.548Z,99613.14
2019-03-10T11:32:02.160Z,99600.95
2019-03-10T11:33:24.319Z,99607.13
2019-03-10T11:34:51.431Z,99610.47
2019-03-10T11:36:14.415Z,99600.80
2019-03-10T11:37:36.855Z,99602.78
2019-03-10T11:38:57.545Z,99602.13
2019-03-10T11:40:39.895Z,99595.78
2019-03-10T11:41:56.264Z,99599.47
2019-03-10T11:43:31.917Z,99619.12
2019-03-10T11:45:00.433Z,99625.97
2019-03-10T11:46:26.262Z,99618.97
2019-03-10T11:47:43.938Z,99621.13
2019-03-10T11:49:01.245Z,99611.80
2019-03-10T11:50:32.214Z,99618.47
2019-03-10T11:51:44.672Z,99609.14
2019-03-10T11:53:18.366Z,99616.45
2019-03-10T11:54:33.669Z,99641.77
2019-03-10T11:55:56.370Z,99609.45
2019-03-10T11:57:23.298Z,99600.80
2019-03-10T11:58:36.863Z,99613.78
2019-03-10T11:59:46.136Z,99624.77
2019-03-10T12:01:10.246Z,99638.75
2019-03-10T12:02:34.596Z,99633.92
2019-03-10T12:03:49.693Z,99643.78
2019-03-10T12:05:02.459Z,99621.93
2019-03-10T12:06:26.978Z,99630.61
2019-03-10T12:07:45.854Z,99653.42
2019-03-10T12:09:10.046Z,99629.44
2019-03-10T12:10:15.226Z,99649.92
2019-03-10T12:11:20.749Z,99637.61
2019-03-10T12:12:25.926Z,99646.11
2019-03-10T12:13:31.750Z,99636.43
2019-03-10T12:14:36.830Z,99652.77
2019-03-10T12:15:42.100Z,99647.44
2019-03-10T12:16:47.528Z,99657.42
2019-03-10T12:17:53.269Z,99638.75
2019-03-10T12:18:58.907Z,99653.76
2019-03-10T12:20:04.427Z,99648.09
2019-03-10T12:21:10.107Z,99649.11
2019-03-10T12:22:15.498Z,99656.42
2019-03-10T12:23:30.029Z,99658.41
2019-03-10T12:24:35.974Z,99640.09
2019-03-10T12:25:41.423Z,99651.09
2019-03-10T12:26:46.541Z,99642.76
2019-03-10T12:27:51.792Z,99644.09
2019-03-10T12:28:56.913Z,99654.59
2019-03-10T12:30:05.987Z,99661.76
2019-03-10T12:31:11.034Z,99655.44
2019-03-10T12:32:16.305Z,99658.41
2019-03-10T12:33:21.713Z,99658.75
2019-03-10T12:34:26.939Z,99665.26
2019-03-10T12:35:34.568Z,99661.10
2019-03-10T12:36:39.099Z,99680.92
2019-03-10T12:37:44.419Z,99666.13
2019-03-10T12:38:49.453Z,99672.44
2019-03-10T12:39:55.164Z,99670.60
2019-03-10T12:41:00.785Z,99691.58
2019-03-10T12:42:06.819Z,99682.75
2019-03-10T12:43:12.179Z,99681.58
2019-03-10T12:44:17.609Z,99688.39
2019-03-10T12:45:23.542Z,99687.70
2019-03-10T12:46:28.996Z,99686.16
2019-03-10T12:47:34.805Z,99683.81
2019-03-10T12:48:40.453Z,99677.61
2019-03-10T12:49:45.780Z,99672.59
2019-03-10T12:50:51.730Z,99678.56
2019-03-10T12:51:57.008Z,99687.50
2019-03-10T12:53:02.422Z,99681.49
2019-03-10T12:54:07.659Z,99676.16
2019-03-10T12:55:13.056Z,99687.25
2019-03-10T12:56:18.641Z,99671.48
2019-03-10T12:57:24.161Z,99684.77
2019-03-10T12:58:32.711Z,99689.89
2019-03-10T12:59:38.086Z,99688.04
2019-03-10T13:00:43.169Z,99693.50
2019-03-10T13:01:48.269Z,99675.70
2019-03-10T13:02:54.329Z,99682.03
2019-03-10T13:03:59.529Z,99693.81
2019-03-10T13:05:04.804Z,99695.64
2019-03-10T13:06:10.283Z,99692.66
2019-03-10T13:07:15.514Z,99698.18
2019-03-10T13:08:20.861Z,99703.50
2019-03-10T13:09:26.259Z,99695.23
2019-03-10T13:10:31.353Z,99696.13
2019-03-10T13:11:36.538Z,99696.14
2019-03-10T13:12:42.123Z,99708.80
2019-03-10T13:13:47.563Z,99688.87
2019-03-10T13:14:59.520Z,99709.34
2019-03-10T13:16:00.442Z,99697.89
2019-03-10T13:17:05.734Z,99703.20
2019-03-10T13:18:10.861Z,99696.92
2019-03-10T13:19:15.893Z,99695.96
2019-03-10T13:20:28.225Z,99680.33
2019-03-10T13:21:28.721Z,99724.25
2019-03-10T13:22:34.133Z,99711.95
2019-03-10T13:23:39.405Z,99697.17
2019-03-10T13:24:44.959Z,99698.32
2019-03-10T13:25:50.834Z,99703.98
2019-03-10T13:26:56.475Z,99708.00
2019-03-10T13:28:01.469Z,99701.83
2019-03-10T13:29:06.584Z,99740.92
2019-03-10T13:30:12.046Z,99711.17
2019-03-10T13:31:17.523Z,99736.99
2019-03-10T13:32:23.253Z,99723.17
2019-03-10T13:33:28.698Z,99720.36
2019-03-10T13:34:33.728Z,99761.62
2019-03-10T13:35:38.800Z,99756.64
2019-03-10T13:36:44.260Z,99761.62
2019-03-10T13:37:49.862Z,99760.95
2019-03-10T13:38:55.509Z,99777.94
2019-03-10T13:40:00.741Z,99772.97
2019-03-10T13:41:06.396Z,99778.61
2019-03-10T13:42:11.812Z,99779.77